Terminal Aerodrome Forecast
Issued by NWS Norman, OK

Home | Current Version | Previous Version | Text Only | Print | Product List | Glossary On
Versions: 1 2 3 4 5 6 7 8 9 10 11 12 13 14 15 16 17 18 19 20 21 22 23
000
FTUS44 KOUN 310527
TAFSPS
TAF
KSPS 310527Z 3106/0106 07010KT P6SM FEW100 SCT250
     FM311500 12010KT P6SM FEW040 SCT250
     FM311900 10010KT P6SM SCT040 BKN250 PROB30 3121/3124 4SM -TSRA
      BKN040CB BKN100=

USA.gov is the U.S. government's official web portal to all federal, state and local government web resources and services.